createdAt,value
2019-05-03T00:02:45.411Z,9.00
2019-05-03T00:05:24.441Z,8.90
2019-05-03T00:07:55.183Z,8.80
2019-05-03T00:10:24.443Z,8.80
2019-05-03T00:12:53.166Z,8.80
2019-05-03T00:15:37.585Z,8.80
2019-05-03T00:18:06.329Z,8.80
2019-05-03T00:20:34.987Z,8.70
2019-05-03T00:23:03.650Z,8.60
2019-05-03T00:25:32.664Z,8.60
2019-05-03T00:28:01.987Z,8.50
2019-05-03T00:30:32.060Z,8.40
2019-05-03T00:33:02.714Z,8.30
2019-05-03T00:35:55.434Z,8.30
2019-05-03T00:38:24.077Z,8.30
2019-05-03T00:41:05.312Z,8.40
2019-05-03T00:43:34.332Z,8.40
2019-05-03T00:46:02.991Z,8.40
2019-05-03T00:48:32.678Z,8.40
2019-05-03T00:51:02.397Z,8.40
2019-05-03T00:53:31.899Z,8.40
2019-05-03T00:56:01.748Z,8.40
2019-05-03T00:58:31.823Z,8.40
2019-05-03T01:01:02.625Z,8.40
2019-05-03T01:03:32.526Z,8.40
2019-05-03T01:06:02.262Z,8.40
2019-05-03T01:08:32.638Z,8.40
2019-05-03T01:11:02.135Z,8.30
2019-05-03T01:13:32.044Z,8.30
2019-05-03T01:16:06.413Z,8.30
2019-05-03T01:18:35.051Z,8.20
2019-05-03T01:21:03.781Z,8.20
2019-05-03T01:23:32.644Z,8.20
2019-05-03T01:26:04.282Z,8.20
2019-05-03T01:28:32.987Z,8.20
2019-05-03T01:31:02.597Z,8.20
2019-05-03T01:33:32.162Z,8.10
2019-05-03T01:36:02.711Z,8.10
2019-05-03T01:38:31.977Z,8.10
2019-05-03T01:41:01.722Z,8.10
2019-05-03T01:43:31.801Z,8.00
2019-05-03T01:46:02.491Z,8.10
2019-05-03T01:48:42.027Z,8.00
2019-05-03T01:51:26.665Z,8.00
2019-05-03T01:53:55.391Z,7.90
2019-05-03T01:56:24.026Z,7.90
2019-05-03T01:58:52.656Z,7.90
2019-05-03T02:01:31.632Z,7.90
2019-05-03T02:04:07.175Z,7.90
2019-05-03T02:06:35.831Z,7.80
2019-05-03T02:09:06.953Z,7.80
2019-05-03T02:11:35.895Z,7.70
2019-05-03T02:14:05.197Z,7.70
2019-05-03T02:16:33.955Z,7.60
2019-05-03T02:19:02.855Z,7.60
2019-05-03T02:21:32.204Z,7.60
2019-05-03T02:24:02.569Z,7.60
2019-05-03T02:26:31.806Z,7.60
2019-05-03T02:29:01.840Z,7.60
2019-05-03T02:31:32.730Z,7.50
2019-05-03T02:34:03.501Z,7.40
2019-05-03T02:36:33.736Z,7.40
2019-05-03T02:39:02.875Z,7.40
2019-05-03T02:41:31.752Z,7.40
2019-05-03T02:44:00.476Z,7.30
2019-05-03T02:46:47.204Z,7.30
2019-05-03T02:49:38.033Z,7.30
2019-05-03T02:52:06.912Z,7.30
2019-05-03T02:54:35.722Z,7.20
2019-05-03T02:57:06.317Z,7.20
2019-05-03T02:59:34.863Z,7.10
2019-05-03T03:02:06.357Z,7.00
2019-05-03T03:04:35.362Z,7.00
2019-05-03T03:07:05.832Z,6.90
2019-05-03T03:09:35.995Z,6.80
2019-05-03T03:12:06.891Z,6.80
2019-05-03T03:14:36.455Z,6.70
2019-05-03T03:17:06.881Z,6.60
2019-05-03T03:19:38.119Z,6.50
2019-05-03T03:22:10.367Z,6.50
2019-05-03T03:24:45.525Z,6.40
2019-05-03T03:27:16.945Z,6.40
2019-05-03T03:29:49.995Z,6.40
2019-05-03T03:32:29.168Z,6.30
2019-05-03T03:35:11.000Z,6.30
2019-05-03T03:37:37.639Z,6.30
2019-05-03T03:40:06.735Z,6.20
2019-05-03T03:42:38.083Z,6.10
2019-05-03T03:45:07.345Z,6.10
2019-05-03T03:47:38.630Z,6.00
2019-05-03T03:50:08.781Z,6.00
2019-05-03T03:52:40.042Z,6.00
2019-05-03T03:55:09.727Z,6.00
2019-05-03T03:57:38.458Z,5.90
2019-05-03T04:00:08.725Z,6.00
2019-05-03T04:02:45.863Z,6.00
2019-05-03T04:05:15.973Z,5.90
2019-05-03T04:07:46.451Z,5.90
2019-05-03T04:10:15.750Z,5.90
2019-05-03T04:12:46.293Z,5.90
2019-05-03T04:15:26.120Z,5.90
2019-05-03T04:18:13.128Z,5.90
2019-05-03T04:20:41.851Z,6.00
2019-05-03T04:23:11.391Z,6.00
2019-05-03T04:25:40.830Z,6.00
2019-05-03T04:28:09.879Z,6.10
2019-05-03T04:30:38.615Z,6.10
2019-05-03T04:33:07.357Z,6.20
2019-05-03T04:35:36.563Z,6.30
2019-05-03T04:38:05.750Z,6.40
2019-05-03T04:40:35.810Z,6.60
2019-05-03T04:43:06.127Z,6.70
2019-05-03T04:45:36.750Z,6.90
2019-05-03T04:48:06.186Z,6.80
2019-05-03T04:50:36.687Z,7.50
2019-05-03T04:53:05.905Z,9.10
2019-05-03T04:55:36.263Z,9.30
2019-05-03T04:58:05.540Z,8.70
2019-05-03T05:00:35.930Z,7.90
2019-05-03T05:03:05.945Z,7.60
2019-05-03T05:05:36.393Z,7.40
2019-05-03T05:08:06.008Z,7.20
2019-05-03T05:10:36.315Z,7.20
2019-05-03T05:13:05.628Z,7.20
2019-05-03T05:15:35.430Z,7.10
2019-05-03T05:18:16.161Z,7.10
2019-05-03T05:21:19.232Z,7.10
2019-05-03T05:23:59.251Z,7.00
2019-05-03T05:26:35.215Z,7.10
2019-05-03T05:29:07.407Z,8.60
2019-05-03T05:31:36.076Z,10.50
2019-05-03T05:34:05.712Z,11.40
2019-05-03T05:36:35.722Z,12.10
2019-05-03T05:39:05.937Z,13.00
2019-05-03T05:41:34.811Z,13.30
2019-05-03T05:44:05.400Z,13.20
2019-05-03T05:46:40.771Z,13.30
2019-05-03T05:49:12.147Z,13.90
2019-05-03T05:51:41.147Z,14.10
2019-05-03T05:54:09.804Z,14.00
2019-05-03T05:56:50.170Z,13.60
2019-05-03T05:59:37.929Z,13.60
2019-05-03T06:02:09.179Z,13.30
2019-05-03T06:04:37.835Z,14.20
2019-05-03T06:07:44.394Z,14.50
2019-05-03T06:10:34.807Z,14.40
2019-05-03T06:13:09.695Z,14.50
2019-05-03T06:16:05.047Z,14.90
2019-05-03T06:18:41.351Z,15.20
2019-05-03T06:21:18.422Z,15.10
2019-05-03T06:23:53.371Z,15.10
2019-05-03T06:26:59.427Z,14.60
2019-05-03T06:29:28.099Z,14.80
2019-05-03T06:32:05.451Z,14.70
2019-05-03T06:34:35.457Z,14.00
2019-05-03T06:37:07.916Z,14.00
2019-05-03T06:39:36.618Z,14.20
2019-05-03T06:42:05.324Z,13.80
2019-05-03T06:44:34.928Z,12.90
2019-05-03T06:47:09.103Z,14.10
2019-05-03T06:49:34.619Z,15.30
2019-05-03T06:52:03.549Z,14.70
2019-05-03T06:54:34.247Z,15.00
2019-05-03T06:57:05.682Z,14.60
2019-05-03T06:59:47.650Z,15.40
2019-05-03T07:02:28.581Z,14.60
2019-05-03T07:04:58.343Z,12.50
2019-05-03T07:07:48.338Z,12.00
2019-05-03T07:10:24.958Z,12.20
2019-05-03T07:13:00.621Z,13.50
2019-05-03T07:15:29.736Z,13.30
2019-05-03T07:17:58.488Z,13.80
2019-05-03T07:20:27.112Z,13.50
2019-05-03T07:22:56.117Z,13.60
2019-05-03T07:25:25.732Z,13.50
2019-05-03T07:27:55.534Z,12.70
2019-05-03T07:30:24.957Z,13.60
2019-05-03T07:33:01.611Z,13.60
2019-05-03T07:35:30.576Z,13.40
2019-05-03T07:37:59.219Z,13.00
2019-05-03T07:40:27.973Z,12.10
2019-05-03T07:42:56.624Z,13.10
2019-05-03T07:45:25.879Z,13.70
2019-05-03T07:47:55.777Z,14.40
2019-05-03T07:50:25.887Z,14.90
2019-05-03T07:52:55.814Z,15.10
2019-05-03T07:55:45.741Z,16.20
2019-05-03T07:58:18.035Z,15.50
2019-05-03T08:00:47.802Z,15.20
2019-05-03T08:03:17.967Z,15.10
2019-05-03T08:05:46.921Z,13.90
2019-05-03T08:08:15.567Z,13.00
2019-05-03T08:10:44.969Z,13.20
2019-05-03T08:13:15.116Z,13.20
2019-05-03T08:15:45.157Z,13.20
2019-05-03T08:18:15.288Z,13.30
2019-05-03T08:20:45.129Z,12.70
2019-05-03T08:23:26.813Z,12.80
2019-05-03T08:25:44.948Z,13.00
2019-05-03T08:28:14.643Z,13.40
2019-05-03T08:31:01.330Z,14.30
2019-05-03T08:34:04.923Z,15.40
2019-05-03T08:36:55.878Z,16.60
2019-05-03T08:39:25.420Z,16.50
2019-05-03T08:41:57.337Z,15.10
2019-05-03T08:44:26.152Z,14.10
2019-05-03T08:46:56.378Z,13.90
2019-05-03T08:49:25.569Z,14.00
2019-05-03T08:51:55.042Z,15.40
2019-05-03T08:54:25.554Z,16.40
2019-05-03T08:56:55.715Z,15.30
2019-05-03T08:59:29.794Z,13.90
2019-05-03T09:01:55.246Z,13.00
2019-05-03T09:04:36.356Z,12.20
2019-05-03T09:06:55.102Z,11.90
2019-05-03T09:09:30.131Z,12.10
2019-05-03T09:11:58.878Z,12.80
2019-05-03T09:14:38.811Z,12.70
2019-05-03T09:16:58.234Z,13.40
2019-05-03T09:19:26.870Z,12.90
2019-05-03T09:21:56.171Z,13.30
2019-05-03T09:24:24.807Z,14.80
2019-05-03T09:26:55.429Z,14.90
2019-05-03T09:29:25.504Z,13.80
2019-05-03T09:31:55.414Z,13.00
2019-05-03T09:34:25.727Z,13.50
2019-05-03T09:36:55.328Z,13.50
2019-05-03T09:39:24.621Z,13.20
2019-05-03T09:41:55.464Z,13.70
2019-05-03T09:44:24.579Z,14.90
2019-05-03T09:46:54.954Z,14.70
2019-05-03T09:49:25.308Z,13.60
2019-05-03T09:51:54.932Z,12.80
2019-05-03T09:54:35.580Z,12.50
2019-05-03T09:57:05.856Z,12.30
2019-05-03T09:59:35.116Z,13.50
2019-05-03T10:02:04.857Z,14.10
2019-05-03T10:04:33.767Z,14.60
2019-05-03T10:07:02.737Z,14.90
2019-05-03T10:09:31.375Z,15.40
2019-05-03T10:12:01.183Z,15.40
2019-05-03T10:14:29.822Z,14.40
2019-05-03T10:17:07.585Z,13.30
2019-05-03T10:19:40.075Z,14.60
2019-05-03T10:22:06.981Z,15.90
2019-05-03T10:24:35.776Z,14.30
2019-05-03T10:27:05.614Z,14.30
2019-05-03T10:29:34.538Z,14.30
2019-05-03T10:32:11.594Z,14.70
2019-05-03T10:34:42.520Z,14.10
2019-05-03T10:37:29.917Z,13.60
2019-05-03T10:39:59.350Z,13.10
2019-05-03T10:42:28.281Z,12.80
2019-05-03T10:44:56.915Z,12.80
2019-05-03T10:47:25.637Z,12.50
2019-05-03T10:49:55.054Z,12.30
2019-05-03T10:52:28.065Z,12.80
2019-05-03T10:54:56.748Z,13.60
2019-05-03T10:57:26.587Z,14.50
2019-05-03T10:59:55.564Z,15.10
2019-05-03T11:02:56.030Z,15.60
2019-05-03T11:05:24.679Z,15.90
2019-05-03T11:07:55.486Z,15.80
2019-05-03T11:10:25.285Z,15.30
2019-05-03T11:12:54.828Z,14.50
2019-05-03T11:15:25.689Z,14.10
2019-05-03T11:17:54.879Z,13.90
2019-05-03T11:20:37.119Z,13.50
2019-05-03T11:23:07.222Z,12.70
2019-05-03T11:25:36.185Z,12.90
2019-05-03T11:28:12.277Z,13.30
2019-05-03T11:30:52.363Z,13.00
2019-05-03T11:33:19.335Z,12.80
2019-05-03T11:35:52.620Z,12.40
2019-05-03T11:38:30.090Z,12.70
2019-05-03T11:40:58.835Z,13.50
2019-05-03T11:43:27.469Z,13.80
2019-05-03T11:45:56.135Z,14.50
2019-05-03T11:48:25.256Z,13.80
2019-05-03T11:50:54.668Z,13.30
2019-05-03T11:53:25.196Z,12.90
2019-05-03T11:55:55.259Z,12.30
2019-05-03T11:58:27.131Z,12.00
2019-05-03T12:01:14.951Z,11.90
2019-05-03T12:03:39.010Z,11.80
2019-05-03T12:06:07.683Z,11.90
2019-05-03T12:08:36.462Z,12.10
2019-05-03T12:11:05.866Z,11.80
2019-05-03T12:13:34.589Z,12.10
2019-05-03T12:16:15.052Z,12.50
2019-05-03T12:18:46.046Z,13.10
2019-05-03T12:21:07.940Z,12.80
2019-05-03T12:23:36.579Z,12.80
2019-05-03T12:26:10.990Z,12.70
2019-05-03T12:28:35.847Z,12.80
2019-05-03T12:31:05.033Z,12.90
2019-05-03T12:33:35.388Z,13.70
2019-05-03T12:36:05.354Z,14.30
2019-05-03T12:38:35.059Z,14.50
2019-05-03T12:41:05.528Z,14.50
2019-05-03T12:43:34.504Z,14.30
2019-05-03T12:46:04.946Z,14.10
2019-05-03T12:48:35.378Z,13.90
2019-05-03T12:51:06.272Z,13.90
2019-05-03T12:53:35.348Z,13.70
2019-05-03T12:56:11.373Z,13.40
2019-05-03T12:59:05.578Z,12.70
2019-05-03T13:01:47.887Z,12.20
2019-05-03T13:04:19.931Z,12.20
2019-05-03T13:06:54.931Z,12.40
2019-05-03T13:09:25.220Z,12.30
2019-05-03T13:11:58.977Z,12.00
2019-05-03T13:14:26.198Z,11.80
2019-05-03T13:16:55.197Z,11.50
2019-05-03T13:19:25.765Z,11.50
2019-05-03T13:21:55.586Z,11.60
2019-05-03T13:24:25.988Z,11.90
2019-05-03T13:26:54.982Z,11.90
2019-05-03T13:29:25.609Z,11.70
2019-05-03T13:32:01.279Z,11.70
2019-05-03T13:34:24.844Z,11.90
2019-05-03T13:36:54.942Z,12.20
2019-05-03T13:39:26.279Z,12.40
2019-05-03T13:41:54.971Z,12.60
2019-05-03T13:44:24.794Z,12.50
2019-05-03T13:46:55.224Z,12.50
2019-05-03T13:49:26.222Z,12.30
2019-05-03T13:51:54.632Z,12.20
2019-05-03T13:54:25.385Z,12.00
2019-05-03T13:56:55.405Z,11.90
2019-05-03T13:59:24.665Z,11.80
2019-05-03T14:01:54.570Z,11.60
2019-05-03T14:04:23.403Z,11.70
2019-05-03T14:06:52.069Z,11.60
2019-05-03T14:09:20.805Z,11.50
2019-05-03T14:11:49.498Z,11.70
2019-05-03T14:14:18.453Z,11.70
2019-05-03T14:16:47.097Z,11.60
2019-05-03T14:19:21.797Z,11.90
2019-05-03T14:21:54.666Z,11.80
2019-05-03T14:24:24.589Z,11.70
2019-05-03T14:26:55.099Z,11.90
2019-05-03T14:29:25.247Z,12.20
2019-05-03T14:31:54.614Z,12.70
2019-05-03T14:34:25.522Z,12.70
2019-05-03T14:36:55.448Z,12.90
2019-05-03T14:39:25.323Z,13.00
2019-05-03T14:41:55.569Z,12.90
2019-05-03T14:44:25.241Z,12.80
2019-05-03T14:46:58.849Z,12.70
2019-05-03T14:49:25.460Z,12.30
2019-05-03T14:51:56.673Z,11.90
2019-05-03T14:54:26.600Z,11.70
2019-05-03T14:57:02.522Z,11.40
2019-05-03T14:59:49.211Z,11.10
2019-05-03T15:02:42.515Z,11.00
2019-05-03T15:05:01.075Z,10.90
2019-05-03T15:07:30.011Z,11.00
2019-05-03T15:09:58.649Z,11.00
2019-05-03T15:12:27.289Z,11.00
2019-05-03T15:14:55.963Z,11.00
2019-05-03T15:17:26.660Z,10.90
2019-05-03T15:19:55.446Z,10.80
2019-05-03T15:22:25.324Z,10.80
2019-05-03T15:24:54.670Z,10.80
2019-05-03T15:27:24.763Z,10.80
2019-05-03T15:29:55.559Z,10.80
2019-05-03T15:32:24.216Z,11.00
2019-05-03T15:34:55.165Z,11.00
2019-05-03T15:37:25.390Z,10.90
2019-05-03T15:39:54.663Z,10.90
2019-05-03T15:42:27.759Z,10.70
2019-05-03T15:45:10.060Z,10.60
2019-05-03T15:48:00.702Z,10.50
2019-05-03T15:50:29.604Z,10.60
2019-05-03T15:52:58.342Z,10.50
2019-05-03T15:55:27.289Z,10.40
2019-05-03T15:57:55.938Z,10.50
2019-05-03T16:00:24.685Z,10.50
2019-05-03T16:02:54.761Z,10.40
2019-05-03T16:05:25.123Z,10.30
2019-05-03T16:07:55.270Z,10.30
2019-05-03T16:10:25.462Z,10.30
2019-05-03T16:12:54.720Z,10.20
2019-05-03T16:15:24.642Z,10.30
2019-05-03T16:17:54.791Z,10.40
2019-05-03T16:20:25.150Z,10.40
2019-05-03T16:22:54.569Z,10.30
2019-05-03T16:25:25.162Z,10.40
2019-05-03T16:28:04.826Z,10.50
2019-05-03T16:30:40.817Z,10.40
2019-05-03T16:33:22.449Z,10.40
2019-05-03T16:35:40.291Z,10.40
2019-05-03T16:38:09.358Z,10.30
2019-05-03T16:40:38.134Z,10.30
2019-05-03T16:43:07.312Z,10.30
2019-05-03T16:45:36.048Z,10.30
2019-05-03T16:48:04.877Z,10.20
2019-05-03T16:50:34.555Z,10.10
2019-05-03T16:53:05.433Z,10.20
2019-05-03T16:55:35.172Z,10.30
2019-05-03T16:58:04.083Z,10.30
2019-05-03T17:00:32.751Z,10.40
2019-05-03T17:03:01.721Z,10.50
2019-05-03T17:05:49.544Z,10.50
2019-05-03T17:08:40.559Z,10.50
2019-05-03T17:11:11.394Z,10.40
2019-05-03T17:13:42.318Z,10.20
2019-05-03T17:16:11.226Z,10.20
2019-05-03T17:18:40.840Z,10.10
2019-05-03T17:21:09.497Z,10.00
2019-05-03T17:23:38.733Z,9.90
2019-05-03T17:26:07.649Z,9.80
2019-05-03T17:28:36.313Z,9.70
2019-05-03T17:31:05.722Z,9.70
2019-05-03T17:33:34.868Z,9.80
2019-05-03T17:36:05.086Z,9.60
2019-05-03T17:38:35.218Z,9.50
2019-05-03T17:41:14.894Z,9.40
2019-05-03T17:43:51.290Z,9.40
2019-05-03T17:46:22.709Z,9.40
2019-05-03T17:48:54.709Z,9.40
2019-05-03T17:51:45.579Z,9.40
2019-05-03T17:54:33.542Z,9.50
2019-05-03T17:57:07.468Z,9.50
2019-05-03T17:59:46.475Z,9.50
2019-05-03T18:02:25.680Z,9.50
2019-05-03T18:05:14.651Z,9.40
2019-05-03T18:08:01.785Z,9.40
2019-05-03T18:10:30.618Z,9.40
2019-05-03T18:12:59.266Z,9.40
2019-05-03T18:15:31.140Z,9.30
2019-05-03T18:17:59.897Z,9.30
2019-05-03T18:20:28.703Z,9.20
2019-05-03T18:22:57.492Z,9.30
2019-05-03T18:25:26.320Z,9.30
2019-05-03T18:27:55.373Z,9.30
2019-05-03T18:30:24.385Z,9.20
2019-05-03T18:32:54.418Z,9.30
2019-05-03T18:35:23.283Z,9.20
2019-05-03T18:37:58.866Z,9.20
2019-05-03T18:40:28.182Z,9.20
2019-05-03T18:43:04.497Z,9.10
2019-05-03T18:45:51.754Z,9.10
2019-05-03T18:48:20.471Z,9.10
2019-05-03T18:50:49.316Z,9.10
2019-05-03T18:53:19.485Z,9.10
2019-05-03T18:55:48.783Z,9.10
2019-05-03T18:58:17.637Z,9.10
2019-05-03T19:00:46.375Z,9.10
2019-05-03T19:03:15.325Z,9.10
2019-05-03T19:05:46.115Z,9.10
2019-05-03T19:08:34.995Z,9.10
2019-05-03T19:11:11.843Z,9.10
2019-05-03T19:13:48.131Z,9.20
2019-05-03T19:16:35.173Z,9.10
2019-05-03T19:19:05.315Z,9.10
2019-05-03T19:21:35.035Z,9.10
2019-05-03T19:24:04.817Z,9.10
2019-05-03T19:26:35.271Z,9.10
2019-05-03T19:29:04.528Z,9.00
2019-05-03T19:31:35.628Z,9.00
2019-05-03T19:34:06.034Z,9.00
2019-05-03T19:36:37.190Z,9.00
2019-05-03T19:39:07.070Z,9.00
2019-05-03T19:41:35.828Z,9.00
2019-05-03T19:44:04.532Z,9.00
2019-05-03T19:46:34.995Z,9.00
2019-05-03T19:49:05.012Z,9.00
2019-05-03T19:51:34.380Z,9.10
2019-05-03T19:54:05.422Z,9.10
2019-05-03T19:56:34.234Z,9.10
2019-05-03T19:59:07.168Z,9.10
2019-05-03T20:01:51.501Z,9.00
2019-05-03T20:04:37.804Z,9.10
2019-05-03T20:07:18.252Z,9.10
2019-05-03T20:09:47.183Z,9.00
2019-05-03T20:12:16.143Z,8.90
2019-05-03T20:14:45.057Z,8.90
2019-05-03T20:17:14.812Z,8.90
2019-05-03T20:19:45.167Z,8.90
2019-05-03T20:22:15.144Z,8.90
2019-05-03T20:24:44.746Z,8.90
2019-05-03T20:27:15.150Z,8.80
2019-05-03T20:29:46.135Z,8.90
2019-05-03T20:32:15.921Z,8.80
2019-05-03T20:34:45.124Z,8.80
2019-05-03T20:37:14.700Z,8.80
2019-05-03T20:39:43.531Z,8.80
2019-05-03T20:42:15.344Z,8.80
2019-05-03T20:44:54.473Z,8.80
2019-05-03T20:47:30.187Z,8.80
2019-05-03T20:50:15.488Z,8.80
2019-05-03T20:52:44.734Z,8.80
2019-05-03T20:55:15.501Z,8.80
2019-05-03T20:57:44.525Z,8.80
2019-05-03T21:00:15.896Z,8.80
2019-05-03T21:02:51.645Z,8.70
2019-05-03T21:05:27.188Z,8.70
2019-05-03T21:07:45.702Z,8.70
2019-05-03T21:10:15.660Z,8.70
2019-05-03T21:12:44.807Z,8.60
2019-05-03T21:15:24.684Z,8.60
2019-05-03T21:18:07.190Z,8.60
2019-05-03T21:20:45.662Z,8.60
2019-05-03T21:23:16.321Z,8.50
2019-05-03T21:26:09.072Z,8.50
2019-05-03T21:28:31.748Z,8.40
2019-05-03T21:31:00.395Z,8.40
2019-05-03T21:33:29.151Z,8.40
2019-05-03T21:35:57.791Z,8.40
2019-05-03T21:38:26.601Z,8.40
2019-05-03T21:40:55.444Z,8.40
2019-05-03T21:43:25.687Z,8.30
2019-05-03T21:46:07.930Z,8.40
2019-05-03T21:49:08.230Z,8.30
2019-05-03T21:51:36.865Z,8.30
2019-05-03T21:55:58.475Z,8.30
2019-05-03T21:58:27.490Z,8.30
2019-05-03T22:01:05.101Z,8.30
2019-05-03T22:03:35.396Z,8.40
2019-05-03T22:06:04.259Z,8.40
2019-05-03T22:08:34.938Z,8.40
2019-05-03T22:11:05.253Z,8.40
2019-05-03T22:13:34.931Z,8.40
2019-05-03T22:16:15.389Z,8.40
2019-05-03T22:18:45.463Z,8.40
2019-05-03T22:21:29.717Z,8.40
2019-05-03T22:24:11.303Z,8.30
2019-05-03T22:26:55.475Z,8.40
2019-05-03T22:29:25.459Z,8.40
2019-05-03T22:31:54.875Z,8.30
2019-05-03T22:34:25.730Z,8.40
2019-05-03T22:36:54.825Z,8.40
2019-05-03T22:39:25.054Z,8.30
2019-05-03T22:41:54.303Z,8.40
2019-05-03T22:44:25.136Z,8.30
2019-05-03T22:46:55.100Z,8.40
2019-05-03T22:49:25.958Z,8.30
2019-05-03T22:51:54.904Z,8.30
2019-05-03T22:54:24.532Z,8.30
2019-05-03T22:56:55.243Z,8.30
2019-05-03T22:59:25.158Z,8.30
2019-05-03T23:01:54.681Z,8.20
2019-05-03T23:04:25.259Z,8.20
2019-05-03T23:06:55.605Z,8.20
2019-05-03T23:09:25.026Z,8.20
2019-05-03T23:11:55.200Z,8.20
2019-05-03T23:14:25.416Z,8.10
2019-05-03T23:16:54.631Z,8.10
2019-05-03T23:19:23.591Z,8.00
2019-05-03T23:22:04.854Z,8.00
2019-05-03T23:24:35.215Z,8.00
2019-05-03T23:27:05.086Z,8.00
2019-05-03T23:29:34.905Z,8.00
2019-05-03T23:32:04.697Z,8.00
2019-05-03T23:34:35.097Z,8.00
2019-05-03T23:37:05.510Z,7.90
2019-05-03T23:39:34.405Z,7.90
2019-05-03T23:42:04.941Z,7.90
2019-05-03T23:44:35.198Z,7.90
2019-05-03T23:47:25.245Z,7.90
2019-05-03T23:49:55.401Z,7.90
2019-05-03T23:52:35.441Z,7.90
2019-05-03T23:55:10.080Z,7.90
2019-05-03T23:59:59.420Z,7.90
